Yellowknife Airport
CYZF : now visible

Airfield :











YOU CAN JOIN US ON...

 
LOGIN :

Register | Disclaimer

   EN    FR    IT 

 









Legend :    VFR   Marginal VFR   IFR   Intensive IFR   Very Intensive IFR
Visi :
Ceiling :
>= 8 km
>= 3000ft
5 to 8 km
1000 to 3000 ft
1500m to 5 km
500 to 1000 ft
800 to 1500m
200 to 500 ft
< 800m
< 200 ft
Symbols :   Thunderstorms  Fog  Heavy snow  Heavy precipitations  Wind > 20 kt






- Airport Elevation : 675 ft
- IATA code : YZF


CYZF - Yellowknife

CURRENT METAR :
  • 312000Z 06015KT 15SM FEW120 BKN240 15/00 A2980 RMK AC1CS7 AC TR SLP102 DENSITY ALT 1000FT

EXPIRED METARs :
  • 311900Z 06014KT 15SM FEW120 FEW160 BKN240 16/01 A2981 RMK AC1AC1CS7 AC TR AC TR SLP105 DENSITY ALT 1100FT
  • 311800Z 07011G18KT 15SM FEW120 FEW160 BKN240 15/01 A2983 RMK AC1AC1CS7 AC TR AC TR SLP113 DENSITY ALT 900FT

TAF TAF CYZF
Valid from the 31 at 18:00 until the 01 at 18:00 UTC


311744Z 3118/0118 06015KT P6SM SCT140 BKN240
TEMPO 3118/3124 FEW090 BKN140
FM010000 07015G25KT P6SM FEW090 OVC120
FM010600 07015G25KT P6SM FEW050 OVC090
TEMPO 0106/0110 P6SM -SHRA FEW020 BKN050 OVC090
FM011000 06010G20KT P6SM -RA OVC015
TEMPO 0110/0118 3SM -RA BR OVC006 RMK NXT FCST BY 010000Z
CZEG FIR / North America



MET'MAP, your aeronautical weather chart ! - Copyright ORBIFLY December 2007 - Disclaimer

ORBIFLY MET'MAP TEAM :

Programming & Development : Alexandra Zaïnal
Concept & original design : Baudouin d'Aumeries
Assistance for programming : Marc-Olivier Méhu
Technical & hardware support : Manuel Goepfert

Contact : metmap@orbifly.com




SOURCES & CREDITS :

   NOAA       Earth
Advisory